Time;durP1;ratioP1;P1;durP2;ratioP2;P2;SDS_P1;SDS_P2;PMS_P1;PMS_P2;Temp;Humidity;BMP_temperature;BMP_pressure;BME280_temperature;BME280_humidity;BME280_pressure;Samples;Min_cycle;Max_cycle;Signal;HPM_P1;HPM_P2
2022/07/23 00:00:48;;;;;;;8.77;6.07;;;26.60;99.90;;;;;;4137005;28;20767;-63
2022/07/23 00:02:54;;;;;;;11.20;6.22;;;26.70;99.90;;;;;;4136552;28;20417;-63
2022/07/23 00:04:59;;;;;;;13.65;7.15;;;26.70;99.90;;;;;;4137727;28;20084;-63
2022/07/23 00:07:10;;;;;;;14.00;7.85;;;26.70;99.90;;;;;;4130810;28;20050;-63
2022/07/23 00:09:17;;;;;;;13.25;7.28;;;26.80;99.90;;;;;;4133419;28;20533;-63
2022/07/23 00:11:21;;;;;;;9.98;6.13;;;26.80;99.90;;;;;;4131636;28;20120;-64
2022/07/23 00:13:41;;;;;;;8.82;6.25;;;26.80;99.90;;;;;;4131859;28;20075;-63
2022/07/23 00:15:48;;;;;;;7.43;5.78;;;26.90;99.90;;;;;;4133141;28;20045;-63
2022/07/23 00:17:52;;;;;;;7.88;5.43;;;26.90;99.90;;;;;;4130911;28;20491;-63
2022/07/23 00:19:59;;;;;;;7.13;5.75;;;26.90;99.90;;;;;;4132088;28;20042;-64
2022/07/23 00:22:05;;;;;;;6.60;5.40;;;26.90;99.90;;;;;;4132157;28;20034;-63
2022/07/23 00:24:10;;;;;;;7.25;6.43;;;26.80;99.90;;;;;;4134286;28;20093;-63
2022/07/23 00:26:14;;;;;;;7.30;5.57;;;26.90;99.90;;;;;;4124884;28;20047;-64
2022/07/23 00:28:19;;;;;;;8.38;5.80;;;26.90;99.90;;;;;;4127842;28;20053;-63
2022/07/23 00:30:24;;;;;;;7.47;5.93;;;27.00;99.90;;;;;;4125898;28;20051;-64
2022/07/23 00:32:31;;;;;;;7.53;5.05;;;27.00;99.90;;;;;;4126134;28;20045;-64
2022/07/23 00:34:57;;;;;;;6.18;4.53;;;27.10;99.90;;;;;;4135374;28;20050;-65
2022/07/23 00:37:02;;;;;;;11.57;4.95;;;27.10;99.90;;;;;;4133466;28;20777;-64
2022/07/23 00:39:08;;;;;;;6.82;4.47;;;27.10;99.90;;;;;;4118382;28;20573;-64
2022/07/23 00:41:15;;;;;;;8.27;4.20;;;27.20;99.90;;;;;;4128245;28;20881;-65
2022/07/23 00:43:23;;;;;;;5.47;4.25;;;27.20;99.90;;;;;;4126929;28;20052;-65
2022/07/23 00:45:42;;;;;;;7.10;3.90;;;27.30;99.90;;;;;;4128240;28;20049;-64
2022/07/23 00:47:50;;;;;;;5.80;3.47;;;27.30;99.90;;;;;;4140106;28;20058;-64
2022/07/23 00:50:03;;;;;;;7.53;3.78;;;27.40;99.90;;;;;;4140356;28;20073;-65
2022/07/23 00:52:10;;;;;;;4.75;3.65;;;27.50;99.90;;;;;;4134648;28;20068;-65
2022/07/23 00:54:17;;;;;;;7.63;3.60;;;27.50;99.90;;;;;;4133537;28;20050;-64
2022/07/23 00:56:23;;;;;;;5.32;3.83;;;27.60;99.90;;;;;;4129645;28;20042;-65
2022/07/23 00:58:29;;;;;;;6.10;3.80;;;27.60;99.90;;;;;;4129989;28;20133;-65
2022/07/23 01:00:34;;;;;;;7.07;4.00;;;27.60;99.90;;;;;;4130373;28;20116;-66
2022/07/23 01:02:39;;;;;;;6.50;3.35;;;27.70;99.90;;;;;;4131200;28;20065;-65
2022/07/23 01:04:46;;;;;;;8.65;3.90;;;27.70;99.90;;;;;;4096551;28;20422;-66
2022/07/23 01:06:52;;;;;;;4.68;3.72;;;27.70;99.90;;;;;;4131244;28;20486;-65
2022/07/23 01:08:57;;;;;;;34.90;10.25;;;27.60;99.90;;;;;;4130506;28;20142;-66
2022/07/23 01:11:05;;;;;;;18.42;6.93;;;27.60;99.90;;;;;;4160511;28;20139;-66
2022/07/23 01:13:11;;;;;;;10.88;4.80;;;27.50;99.90;;;;;;4128747;28;20116;-66
2022/07/23 01:15:16;;;;;;;13.55;5.07;;;27.60;99.90;;;;;;4128616;28;20124;-66
2022/07/23 01:17:23;;;;;;;6.60;4.03;;;27.60;99.90;;;;;;4130381;28;20740;-66
2022/07/23 01:19:30;;;;;;;6.28;3.95;;;27.70;99.90;;;;;;4134793;28;20539;-66
2022/07/23 01:21:37;;;;;;;6.57;4.10;;;27.70;99.90;;;;;;4134861;28;20061;-66
2022/07/23 01:23:42;;;;;;;5.70;3.50;;;27.80;99.90;;;;;;4133994;28;20730;-65
2022/07/23 01:25:53;;;;;;;4.45;3.47;;;27.90;99.90;;;;;;4135209;28;20046;-65
2022/07/23 01:27:59;;;;;;;7.05;4.22;;;27.80;99.90;;;;;;4131424;28;20054;-65
2022/07/23 01:30:04;;;;;;;6.55;4.05;;;27.90;99.90;;;;;;4129044;28;20054;-65
2022/07/23 01:32:10;;;;;;;5.22;4.00;;;28.00;99.90;;;;;;4129712;28;20551;-65
2022/07/23 01:34:15;;;;;;;4.32;3.92;;;28.00;99.90;;;;;;4127213;28;20679;-66
2022/07/23 01:36:30;;;;;;;5.57;3.90;;;28.10;99.90;;;;;;4133649;28;20049;-67
2022/07/23 01:38:38;;;;;;;5.75;4.28;;;28.20;99.90;;;;;;4138604;28;20042;-66
2022/07/23 01:40:42;;;;;;;6.20;3.78;;;28.30;99.90;;;;;;4116689;28;20065;-65
2022/07/23 01:42:57;;;;;;;5.35;3.65;;;28.30;99.90;;;;;;4137062;28;20049;-66
2022/07/23 01:45:05;;;;;;;3.90;3.50;;;28.20;99.90;;;;;;4135948;28;20048;-65
2022/07/23 01:47:11;;;;;;;7.28;4.25;;;28.20;99.90;;;;;;4138997;28;20057;-68
2022/07/23 01:49:19;;;;;;;6.80;3.88;;;28.40;99.90;;;;;;4131679;28;20865;-68
2022/07/23 01:51:59;;;;;;;6.20;3.60;;;28.40;99.90;;;;;;4129868;28;20050;-69
2022/07/23 01:54:07;;;;;;;4.53;3.33;;;28.50;99.90;;;;;;4129828;28;20052;-67
2022/07/23 01:56:14;;;;;;;6.18;3.28;;;28.60;99.90;;;;;;4136389;28;20127;-67
2022/07/23 01:58:22;;;;;;;5.85;3.22;;;28.80;99.90;;;;;;4131192;28;20057;-67
2022/07/23 02:00:26;;;;;;;4.55;2.88;;;28.90;99.90;;;;;;4129553;28;20050;-66
2022/07/23 02:02:32;;;;;;;4.00;2.75;;;28.90;99.90;;;;;;4130912;28;20042;-67
2022/07/23 02:04:42;;;;;;;4.38;2.83;;;28.90;99.90;;;;;;4131366;28;20058;-67
2022/07/23 02:06:48;;;;;;;7.20;3.20;;;28.90;99.90;;;;;;4132362;28;20058;-67
2022/07/23 02:08:55;;;;;;;4.55;3.33;;;28.80;99.90;;;;;;4134466;28;20567;-68
2022/07/23 02:11:01;;;;;;;4.78;3.30;;;28.80;99.90;;;;;;4133144;28;20054;-68
2022/07/23 02:13:09;;;;;;;3.45;3.15;;;28.80;99.90;;;;;;4133206;28;20786;-68
2022/07/23 02:15:23;;;;;;;4.50;3.25;;;28.80;99.90;;;;;;4131560;28;20706;-69
2022/07/23 02:17:30;;;;;;;3.10;2.90;;;28.80;99.90;;;;;;4130448;28;20872;-68
2022/07/23 02:19:37;;;;;;;4.80;2.92;;;28.80;99.90;;;;;;4131674;28;20435;-68
2022/07/23 02:21:43;;;;;;;4.03;2.92;;;28.90;99.90;;;;;;4128827;28;20107;-69
2022/07/23 02:23:50;;;;;;;3.75;2.72;;;29.00;99.90;;;;;;4133216;28;20129;-68
2022/07/23 02:25:58;;;;;;;7.97;3.13;;;29.10;99.90;;;;;;4114571;28;20070;-67
2022/07/23 02:28:06;;;;;;;4.05;2.90;;;29.20;99.90;;;;;;4130681;28;20659;-68
2022/07/23 02:30:12;;;;;;;4.43;2.85;;;29.30;99.90;;;;;;4139032;28;20168;-68
2022/07/23 02:32:25;;;;;;;5.60;2.70;;;29.30;99.90;;;;;;4081816;28;20424;-68
2022/07/23 02:34:32;;;;;;;4.18;2.40;;;29.30;99.90;;;;;;4130069;28;20048;-67
2022/07/23 02:36:46;;;;;;;3.53;2.45;;;29.30;99.90;;;;;;4140751;28;20165;-67
2022/07/23 02:38:54;;;;;;;4.35;2.90;;;29.20;99.90;;;;;;4092513;28;20564;-67
2022/07/23 02:41:00;;;;;;;6.63;2.70;;;29.10;99.90;;;;;;4108358;28;20185;-68
2022/07/23 02:43:15;;;;;;;4.25;2.45;;;29.00;99.90;;;;;;4130475;28;20453;-68
2022/07/23 02:45:33;;;;;;;2.88;2.60;;;29.10;99.90;;;;;;4120538;28;20520;-67
2022/07/23 02:47:38;;;;;;;3.13;2.78;;;29.00;99.90;;;;;;4127581;28;20520;-69
2022/07/23 02:49:42;;;;;;;5.70;2.40;;;29.10;99.90;;;;;;4130888;28;20124;-66
2022/07/23 02:51:51;;;;;;;2.75;2.13;;;29.10;99.90;;;;;;4135620;28;20077;-68
2022/07/23 02:53:55;;;;;;;3.58;1.90;;;29.10;99.90;;;;;;4132221;28;20081;-68
2022/07/23 02:56:01;;;;;;;4.38;2.55;;;29.10;99.90;;;;;;4132975;28;20054;-68
2022/07/23 02:58:09;;;;;;;3.20;2.35;;;29.10;99.90;;;;;;4130615;28;20038;-68
2022/07/23 03:00:14;;;;;;;3.00;1.98;;;29.20;99.90;;;;;;4132617;28;20053;-68
2022/07/23 03:02:19;;;;;;;3.38;1.90;;;29.40;99.90;;;;;;4130492;28;20054;-68
2022/07/23 03:04:26;;;;;;;2.83;2.10;;;29.70;99.90;;;;;;4097920;28;20043;-67
2022/07/23 03:06:31;;;;;;;2.58;1.83;;;29.80;99.90;;;;;;4131520;28;20045;-68
2022/07/23 03:08:36;;;;;;;3.72;2.03;;;30.00;99.90;;;;;;4126171;28;20137;-67
2022/07/23 03:10:44;;;;;;;2.30;1.90;;;30.20;99.90;;;;;;4125111;28;20497;-68
2022/07/23 03:12:54;;;;;;;3.45;1.75;;;30.20;99.90;;;;;;4125684;28;20046;-67
2022/07/23 03:15:00;;;;;;;6.60;2.45;;;30.10;99.90;;;;;;4128295;28;20157;-67
2022/07/23 03:17:11;;;;;;;8.35;2.20;;;30.20;99.90;;;;;;4130110;28;20406;-71
2022/07/23 03:19:22;;;;;;;10.30;2.15;;;30.20;99.90;;;;;;4131904;28;20057;-69
2022/07/23 03:21:31;;;;;;;4.78;1.90;;;30.30;99.90;;;;;;4135919;28;20129;-69
2022/07/23 03:23:40;;;;;;;3.33;2.28;;;30.30;99.90;;;;;;4135433;28;20116;-67
2022/07/23 03:25:46;;;;;;;2.95;2.10;;;30.30;99.90;;;;;;4132213;28;20092;-68
2022/07/23 03:27:56;;;;;;;2.65;2.00;;;30.40;99.90;;;;;;4134022;28;20413;-69
2022/07/23 03:30:07;;;;;;;2.67;2.00;;;30.60;99.90;;;;;;4130727;28;20050;-66
2022/07/23 03:32:12;;;;;;;5.70;2.15;;;30.50;99.90;;;;;;4133879;28;20073;-68
2022/07/23 03:34:18;;;;;;;3.13;1.67;;;30.60;99.90;;;;;;4133772;28;20049;-67
2022/07/23 03:36:25;;;;;;;3.75;1.70;;;30.60;99.90;;;;;;4132283;28;20041;-67
2022/07/23 03:38:31;;;;;;;2.67;1.70;;;30.80;99.90;;;;;;4134068;28;20034;-67
2022/07/23 03:40:36;;;;;;;3.88;2.05;;;30.90;99.90;;;;;;4133859;28;20069;-67
2022/07/23 03:42:45;;;;;;;2.97;2.17;;;31.00;99.90;;;;;;4132929;28;20089;-66
2022/07/23 03:44:50;;;;;;;3.00;2.10;;;31.10;99.90;;;;;;4140091;28;20050;-67
2022/07/23 03:46:55;;;;;;;4.78;1.90;;;31.00;99.90;;;;;;4133459;28;20053;-68
2022/07/23 03:49:01;;;;;;;2.08;1.88;;;30.80;99.90;;;;;;4132843;28;20041;-65
2022/07/23 03:51:06;;;;;;;4.50;2.10;;;30.60;99.90;;;;;;4129775;28;20154;-67
2022/07/23 03:53:11;;;;;;;1.98;1.73;;;30.50;99.90;;;;;;4130180;28;20089;-67
2022/07/23 03:55:15;;;;;;;2.85;2.10;;;30.40;99.90;;;;;;4134958;28;20042;-66
2022/07/23 03:57:21;;;;;;;4.93;2.53;;;30.40;99.90;;;;;;4132221;28;20054;-67
2022/07/23 03:59:25;;;;;;;2.78;2.17;;;30.40;99.90;;;;;;4133618;28;20078;-67
2022/07/23 04:01:32;;;;;;;3.65;2.13;;;30.40;99.90;;;;;;4165957;28;20092;-69
2022/07/23 04:03:37;;;;;;;3.10;2.40;;;30.30;99.90;;;;;;4161693;28;20088;-68
2022/07/23 04:05:42;;;;;;;4.93;2.25;;;30.30;99.90;;;;;;4133397;28;20428;-67
2022/07/23 04:07:49;;;;;;;4.57;2.10;;;30.30;99.90;;;;;;4131457;28;20050;-68
2022/07/23 04:09:54;;;;;;;2.80;2.10;;;30.30;99.90;;;;;;4134190;28;20049;-68
2022/07/23 04:11:59;;;;;;;2.85;2.13;;;30.40;99.90;;;;;;4130288;28;20092;-68
2022/07/23 04:14:05;;;;;;;4.03;2.30;;;30.30;99.90;;;;;;4111627;28;20053;-67
2022/07/23 04:16:10;;;;;;;3.08;2.20;;;30.20;99.90;;;;;;4133417;28;20053;-67
2022/07/23 04:18:17;;;;;;;4.25;2.40;;;30.20;99.90;;;;;;4136098;28;20043;-67
2022/07/23 04:20:32;;;;;;;3.38;2.30;;;30.20;99.90;;;;;;4140153;28;20389;-67
2022/07/23 04:22:43;;;;;;;4.25;2.42;;;30.20;99.90;;;;;;4127610;28;20121;-66
2022/07/23 04:24:49;;;;;;;3.72;2.33;;;30.10;99.90;;;;;;4126737;28;20046;-67
2022/07/23 04:26:57;;;;;;;2.95;2.13;;;30.20;99.90;;;;;;4130021;28;20394;-67
2022/07/23 04:29:02;;;;;;;3.17;2.28;;;30.30;99.90;;;;;;4128885;28;20092;-67
2022/07/23 04:31:07;;;;;;;2.88;2.05;;;30.40;99.90;;;;;;4128145;28;20531;-66
2022/07/23 04:33:17;;;;;;;2.80;2.10;;;30.40;99.90;;;;;;4160220;28;20052;-66
2022/07/23 04:35:24;;;;;;;3.15;2.30;;;30.50;99.90;;;;;;4152718;28;20038;-67
2022/07/23 04:37:32;;;;;;;3.78;2.42;;;30.60;99.90;;;;;;4144279;28;20052;-68
2022/07/23 04:39:39;;;;;;;4.55;2.22;;;30.50;99.90;;;;;;4144419;28;20079;-67
2022/07/23 04:41:44;;;;;;;5.93;2.10;;;30.60;99.90;;;;;;4176715;28;20750;-67
2022/07/23 04:43:49;;;;;;;3.88;2.10;;;30.80;99.90;;;;;;4144274;28;20048;-67
2022/07/23 04:45:56;;;;;;;4.38;2.15;;;31.00;99.90;;;;;;4144157;28;20133;-67
2022/07/23 04:48:01;;;;;;;2.42;2.00;;;31.00;99.90;;;;;;4144413;28;20050;-66
2022/07/23 04:50:07;;;;;;;2.63;1.80;;;31.10;99.90;;;;;;4138221;28;20559;-66
2022/07/23 04:52:18;;;;;;;2.75;1.60;;;31.10;99.90;;;;;;4127856;28;20096;-66
2022/07/23 04:54:23;;;;;;;3.33;1.80;;;31.10;99.90;;;;;;4127946;28;20100;-66
2022/07/23 04:56:28;;;;;;;3.03;1.80;;;31.10;99.90;;;;;;4129377;28;20049;-66
2022/07/23 04:58:34;;;;;;;2.97;1.90;;;31.10;99.90;;;;;;4129144;28;20129;-66
2022/07/23 05:00:39;;;;;;;3.38;1.63;;;31.20;99.90;;;;;;4129239;28;20121;-68
2022/07/23 05:02:43;;;;;;;4.00;2.03;;;31.40;99.90;;;;;;4127856;28;20055;-66
2022/07/23 05:04:52;;;;;;;2.70;1.80;;;31.50;99.90;;;;;;4127225;28;20076;-66
2022/07/23 05:06:57;;;;;;;4.63;2.10;;;31.70;99.90;;;;;;4137381;28;20057;-66
2022/07/23 05:09:01;;;;;;;4.43;1.80;;;31.80;99.90;;;;;;4135636;28;20576;-67
2022/07/23 05:11:08;;;;;;;3.03;1.52;;;31.80;99.90;;;;;;4134947;28;20081;-67
2022/07/23 05:13:16;;;;;;;3.25;1.60;;;31.80;99.90;;;;;;4135004;28;20493;-66
2022/07/23 05:15:20;;;;;;;4.75;1.92;;;31.90;99.90;;;;;;4136247;28;20042;-67
2022/07/23 05:17:27;;;;;;;5.53;1.83;;;31.90;99.90;;;;;;4134874;28;20677;-67
2022/07/23 05:19:32;;;;;;;1.98;1.60;;;31.90;99.90;;;;;;4118949;28;20046;-68
2022/07/23 05:21:37;;;;;;;1.75;1.50;;;31.90;99.90;;;;;;4133450;28;20045;-65
2022/07/23 05:23:47;;;;;;;3.33;1.60;;;31.90;99.90;;;;;;4132506;28;20034;-64
2022/07/23 05:25:55;;;;;;;2.35;1.50;;;31.80;99.90;;;;;;4135824;28;20046;-64
2022/07/23 05:28:03;;;;;;;3.83;1.50;;;31.80;99.90;;;;;;4134343;28;20042;-65
2022/07/23 05:30:12;;;;;;;5.60;1.65;;;31.80;99.90;;;;;;4135013;28;20519;-65
2022/07/23 05:32:19;;;;;;;3.72;1.40;;;31.80;99.90;;;;;;4133026;28;20141;-66
2022/07/23 05:34:31;;;;;;;2.13;1.20;;;31.80;99.90;;;;;;4147111;28;20243;-65
2022/07/23 05:36:37;;;;;;;3.75;1.50;;;31.90;99.90;;;;;;4150189;28;20729;-64
2022/07/23 05:38:42;;;;;;;3.47;1.50;;;31.90;99.90;;;;;;4164564;28;20051;-63
2022/07/23 05:40:47;;;;;;;4.03;1.38;;;32.00;99.90;;;;;;4134466;28;20058;-63
2022/07/23 05:42:56;;;;;;;3.88;1.10;;;32.10;99.90;;;;;;4134691;28;20108;-63
2022/07/23 05:45:00;;;;;;;2.13;1.52;;;32.30;99.90;;;;;;4134666;28;20440;-66
2022/07/23 05:47:06;;;;;;;1.65;0.93;;;32.50;99.90;;;;;;4134604;28;20050;-64
2022/07/23 05:49:15;;;;;;;2.00;1.23;;;32.70;99.90;;;;;;4134874;28;20042;-64
2022/07/23 05:51:38;;;;;;;1.90;1.17;;;32.70;99.90;;;;;;4130475;28;20694;-65
2022/07/23 05:53:45;;;;;;;1.58;1.20;;;32.50;99.90;;;;;;4132979;28;20077;-65
2022/07/23 05:55:55;;;;;;;2.88;1.00;;;32.60;99.90;;;;;;4134428;28;20115;-64
2022/07/23 05:57:59;;;;;;;2.65;1.00;;;32.80;99.90;;;;;;4142953;28;20081;-65
2022/07/23 06:00:10;;;;;;;4.22;1.10;;;33.00;99.90;;;;;;4175955;28;20094;-65
2022/07/23 06:02:20;;;;;;;2.25;1.08;;;33.10;99.90;;;;;;4172202;28;20379;-66
2022/07/23 06:04:25;;;;;;;2.33;1.30;;;33.20;99.90;;;;;;4134391;28;20049;-65
2022/07/23 06:06:42;;;;;;;2.38;1.10;;;33.30;99.90;;;;;;4138839;28;20074;-65
2022/07/23 06:08:51;;;;;;;1.13;0.80;;;33.30;99.90;;;;;;4153634;28;20087;-64
2022/07/23 06:11:01;;;;;;;3.40;0.90;;;33.20;99.90;;;;;;4133145;28;20046;-65
2022/07/23 06:13:06;;;;;;;2.53;1.08;;;33.20;99.90;;;;;;4133292;28;20054;-64
2022/07/23 06:15:13;;;;;;;2.15;0.90;;;33.20;99.90;;;;;;4129079;28;20054;-64
2022/07/23 06:17:18;;;;;;;1.38;0.95;;;33.00;99.90;;;;;;4135746;28;20104;-66
2022/07/23 06:19:23;;;;;;;2.13;0.98;;;33.20;99.90;;;;;;4134355;28;20440;-65
2022/07/23 06:21:31;;;;;;;2.00;0.77;;;33.40;99.90;;;;;;4166425;28;20049;-65
2022/07/23 06:23:53;;;;;;;3.35;0.98;;;33.40;99.70;;;;;;4110812;28;20050;-65
2022/07/23 06:25:59;;;;;;;2.42;0.93;;;33.20;99.90;;;;;;4131379;28;20078;-67
2022/07/23 06:28:09;;;;;;;4.43;1.20;;;33.20;99.90;;;;;;4143507;28;20046;-65
2022/07/23 06:30:19;;;;;;;3.07;0.90;;;33.40;99.90;;;;;;4173302;28;20056;-64
2022/07/23 06:32:24;;;;;;;2.05;0.88;;;33.60;99.60;;;;;;4126089;28;20078;-66
2022/07/23 06:34:31;;;;;;;2.35;0.90;;;33.70;99.80;;;;;;4127083;28;20125;-66
2022/07/23 06:36:36;;;;;;;3.72;1.10;;;33.70;99.10;;;;;;4124748;28;20133;-65
2022/07/23 06:38:41;;;;;;;1.08;0.73;;;33.80;99.50;;;;;;4127856;28;20046;-65
2022/07/23 06:40:54;;;;;;;2.45;0.95;;;34.10;99.40;;;;;;4118170;28;20453;-65
2022/07/23 06:42:59;;;;;;;1.38;0.70;;;34.10;99.10;;;;;;4151018;28;20653;-66
2022/07/23 06:45:05;;;;;;;4.38;0.82;;;34.30;98.70;;;;;;4124166;28;20081;-66
2022/07/23 06:47:14;;;;;;;3.08;1.00;;;34.00;99.70;;;;;;4093075;28;20059;-67
2022/07/23 06:49:18;;;;;;;2.88;1.20;;;33.60;99.90;;;;;;4126990;28;20053;-65
2022/07/23 06:51:24;;;;;;;4.13;1.20;;;33.50;99.90;;;;;;4132575;28;20049;-64
2022/07/23 06:53:31;;;;;;;2.65;0.90;;;33.70;99.90;;;;;;4132199;28;20120;-65
2022/07/23 06:55:38;;;;;;;2.53;0.77;;;33.60;99.90;;;;;;4129030;28;20639;-66
2022/07/23 06:57:43;;;;;;;1.45;0.85;;;33.80;99.90;;;;;;4127314;28;20468;-67
2022/07/23 06:59:50;;;;;;;2.88;0.88;;;33.80;99.90;;;;;;4129413;28;20125;-66
2022/07/23 07:01:58;;;;;;;2.15;0.60;;;33.60;99.50;;;;;;4129160;28;20044;-66
2022/07/23 07:04:02;;;;;;;1.05;0.70;;;33.30;99.30;;;;;;4129542;28;20072;-66
2022/07/23 07:06:08;;;;;;;1.60;0.60;;;33.10;99.70;;;;;;4130573;28;20715;-66
2022/07/23 07:08:25;;;;;;;1.92;0.77;;;32.80;99.90;;;;;;4129538;28;20061;-65
2022/07/23 07:10:30;;;;;;;1.10;0.70;;;32.80;99.90;;;;;;4128967;28;20421;-66
2022/07/23 07:12:37;;;;;;;1.35;0.65;;;32.80;99.90;;;;;;4130228;28;20077;-66
2022/07/23 07:14:42;;;;;;;2.03;0.95;;;33.10;99.90;;;;;;4129373;28;20078;-66
2022/07/23 07:16:47;;;;;;;2.63;1.13;;;33.40;99.90;;;;;;4130002;28;20645;-66
2022/07/23 07:18:52;;;;;;;2.17;1.20;;;33.50;99.90;;;;;;4130876;28;20876;-66
2022/07/23 07:20:58;;;;;;;2.13;1.02;;;33.30;99.90;;;;;;4129610;28;20046;-66
2022/07/23 07:23:12;;;;;;;2.78;1.30;;;33.00;99.90;;;;;;4130922;28;20077;-67
2022/07/23 07:25:19;;;;;;;2.25;1.50;;;33.10;99.90;;;;;;4130475;28;20049;-66
2022/07/23 07:27:23;;;;;;;2.83;1.30;;;33.10;99.90;;;;;;4130617;28;20489;-66
2022/07/23 07:29:30;;;;;;;2.78;1.38;;;33.00;99.90;;;;;;4128402;28;20061;-68
2022/07/23 07:31:41;;;;;;;2.85;1.40;;;32.90;99.90;;;;;;4131098;28;20661;-66
2022/07/23 07:34:02;;;;;;;1.95;1.25;;;32.70;99.90;;;;;;4094902;28;20051;-66
2022/07/23 07:36:13;;;;;;;2.33;0.95;;;32.60;99.90;;;;;;4079545;29;20067;-66
2022/07/23 07:38:43;;;;;;;3.10;1.05;;;32.80;99.90;;;;;;4081844;29;20460;-66
2022/07/23 07:40:49;;;;;;;1.98;1.20;;;33.10;99.90;;;;;;4093659;29;20111;-67
2022/07/23 07:43:01;;;;;;;1.65;0.90;;;33.30;99.20;;;;;;4095351;28;20379;-67
2022/07/23 07:45:10;;;;;;;1.20;0.90;;;33.40;99.00;;;;;;4099563;28;20541;-67
2022/07/23 07:47:15;;;;;;;2.97;1.10;;;33.60;98.90;;;;;;4093720;28;20075;-67
2022/07/23 07:49:25;;;;;;;2.85;1.08;;;33.80;98.50;;;;;;4093282;28;20054;-66
2022/07/23 07:51:37;;;;;;;2.13;0.80;;;34.00;97.60;;;;;;4093828;29;20043;-66
2022/07/23 07:53:42;;;;;;;1.52;0.75;;;34.10;97.30;;;;;;4093000;28;20163;-66
2022/07/23 07:55:50;;;;;;;0.68;0.65;;;34.30;96.40;;;;;;4094451;28;20482;-66
2022/07/23 07:57:55;;;;;;;0.68;0.25;;;34.30;95.90;;;;;;4094610;29;20090;-66
2022/07/23 08:00:00;;;;;;;2.47;0.47;;;34.30;95.20;;;;;;4094178;28;20065;-67
2022/07/23 08:02:16;;;;;;;0.40;0.40;;;34.30;95.60;;;;;;4095461;28;20071;-66
2022/07/23 08:04:30;;;;;;;1.00;0.70;;;34.40;95.40;;;;;;4093821;29;20090;-66
2022/07/23 08:06:36;;;;;;;5.10;1.40;;;34.40;96.10;;;;;;4095275;29;20043;-66
2022/07/23 08:08:40;;;;;;;1.13;0.80;;;34.50;96.60;;;;;;4092785;28;20577;-67
2022/07/23 08:10:49;;;;;;;1.92;0.55;;;34.50;96.70;;;;;;4096434;28;20058;-66
2022/07/23 08:12:56;;;;;;;2.05;0.70;;;34.50;96.60;;;;;;4141642;28;20045;-65
2022/07/23 08:15:01;;;;;;;1.85;0.80;;;34.50;96.30;;;;;;4136536;28;20137;-65
2022/07/23 08:17:05;;;;;;;1.98;0.70;;;34.30;96.90;;;;;;4125049;28;20046;-66
2022/07/23 08:19:18;;;;;;;2.20;0.88;;;34.30;96.80;;;;;;4139755;28;20500;-66
2022/07/23 08:21:25;;;;;;;1.80;0.70;;;34.40;96.90;;;;;;4131949;28;20046;-65
2022/07/23 08:23:34;;;;;;;1.20;0.80;;;34.30;97.00;;;;;;4130856;28;20497;-65
2022/07/23 08:25:44;;;;;;;1.55;0.75;;;34.10;96.90;;;;;;4130130;28;20042;-66
2022/07/23 08:27:49;;;;;;;1.40;0.55;;;34.00;97.80;;;;;;4128209;28;20038;-66
2022/07/23 08:29:58;;;;;;;1.67;0.80;;;33.90;97.50;;;;;;4135376;28;20038;-67
2022/07/23 08:32:03;;;;;;;1.40;0.55;;;33.80;97.60;;;;;;4129501;28;20351;-66
2022/07/23 08:34:27;;;;;;;2.70;0.90;;;33.70;97.70;;;;;;4130644;28;20053;-68
2022/07/23 08:36:37;;;;;;;1.85;0.80;;;33.50;97.70;;;;;;4129142;28;20097;-66
2022/07/23 08:38:43;;;;;;;2.17;1.20;;;33.30;98.00;;;;;;4130539;28;20050;-66
2022/07/23 08:40:51;;;;;;;3.80;1.73;;;33.20;98.00;;;;;;4128812;28;20160;-66
2022/07/23 08:42:57;;;;;;;1.00;0.60;;;33.10;97.90;;;;;;4129392;28;20042;-66
2022/07/23 08:45:23;;;;;;;2.08;0.80;;;32.90;98.30;;;;;;4116334;28;20046;-66
2022/07/23 08:47:28;;;;;;;1.60;0.80;;;32.80;98.40;;;;;;4129067;28;20052;-65
2022/07/23 08:49:36;;;;;;;1.35;0.70;;;32.90;98.60;;;;;;4128874;28;20077;-66
2022/07/23 08:51:41;;;;;;;2.35;0.70;;;32.80;98.50;;;;;;4129939;28;20077;-66
2022/07/23 08:53:47;;;;;;;2.03;0.73;;;32.90;98.90;;;;;;4113240;28;20070;-65
2022/07/23 08:55:57;;;;;;;1.73;0.90;;;32.90;99.00;;;;;;4127944;28;20129;-66
2022/07/23 08:58:03;;;;;;;3.53;1.25;;;32.90;99.30;;;;;;4128856;28;20157;-66
2022/07/23 09:00:08;;;;;;;2.00;0.80;;;32.90;99.90;;;;;;4130334;28;20132;-67
2022/07/23 09:02:17;;;;;;;4.30;1.00;;;32.80;99.90;;;;;;4122257;28;20050;-66
2022/07/23 09:04:22;;;;;;;4.18;1.20;;;32.80;99.90;;;;;;4129728;28;20093;-66
2022/07/23 09:06:29;;;;;;;2.47;0.98;;;32.90;99.90;;;;;;4129658;28;20038;-66
2022/07/23 09:08:40;;;;;;;3.67;1.08;;;32.90;99.90;;;;;;4132342;28;20038;-67
2022/07/23 09:11:03;;;;;;;2.65;1.00;;;33.00;99.80;;;;;;4134941;28;20069;-67
2022/07/23 09:13:49;;;;;;;1.55;0.90;;;33.00;99.80;;;;;;4136183;28;20046;-66
2022/07/23 09:16:02;;;;;;;1.88;0.80;;;33.00;99.90;;;;;;4134224;28;20046;-66
2022/07/23 09:18:06;;;;;;;3.53;0.90;;;33.00;99.60;;;;;;4134630;28;20057;-67
2022/07/23 09:20:15;;;;;;;2.42;1.00;;;32.90;99.60;;;;;;4135715;28;20122;-66
2022/07/23 09:22:26;;;;;;;2.80;0.93;;;32.80;99.90;;;;;;4135346;28;20041;-66
2022/07/23 09:24:31;;;;;;;2.65;1.10;;;32.80;99.90;;;;;;4130831;28;20077;-66
2022/07/23 09:26:41;;;;;;;6.82;1.05;;;32.70;99.90;;;;;;4131056;28;20532;-66
2022/07/23 09:28:53;;;;;;;5.60;1.02;;;32.60;99.90;;;;;;4096348;28;20050;-68
2022/07/23 09:30:57;;;;;;;3.83;1.00;;;32.50;99.90;;;;;;4131813;28;20073;-67
2022/07/23 09:33:10;;;;;;;3.22;0.98;;;32.50;99.90;;;;;;4126959;28;20078;-67
2022/07/23 09:35:14;;;;;;;4.13;0.80;;;32.50;99.90;;;;;;4140868;28;20042;-67
2022/07/23 09:37:19;;;;;;;4.07;0.90;;;32.40;99.90;;;;;;4128318;28;20050;-67
2022/07/23 09:39:32;;;;;;;2.92;1.08;;;32.30;99.90;;;;;;4126426;28;20043;-66
2022/07/23 09:41:44;;;;;;;3.30;1.20;;;32.30;99.90;;;;;;4126212;28;20105;-66
2022/07/23 09:43:54;;;;;;;2.15;0.80;;;32.20;99.90;;;;;;4139531;28;20060;-66
2022/07/23 09:46:32;;;;;;;5.07;1.10;;;32.10;99.90;;;;;;4156226;28;20120;-67
2022/07/23 09:48:44;;;;;;;2.90;1.08;;;32.10;99.90;;;;;;4141747;28;20054;-67
2022/07/23 09:50:51;;;;;;;21.85;4.88;;;32.10;99.90;;;;;;4138193;28;20054;-65
2022/07/23 09:52:55;;;;;;;17.63;3.40;;;32.00;99.90;;;;;;4162175;28;20034;-67
2022/07/23 09:55:05;;;;;;;14.07;2.88;;;31.90;99.90;;;;;;4107643;28;20081;-65
2022/07/23 09:57:16;;;;;;;13.85;2.75;;;31.80;99.90;;;;;;4140273;28;20037;-65
2022/07/23 09:59:24;;;;;;;11.90;2.42;;;31.90;99.90;;;;;;4157352;28;20049;-67
2022/07/23 10:01:33;;;;;;;6.00;2.17;;;31.80;99.90;;;;;;4139113;28;20651;-67
2022/07/23 10:03:37;;;;;;;9.30;1.73;;;31.90;99.90;;;;;;4130030;28;20054;-66
2022/07/23 10:06:02;;;;;;;5.18;1.40;;;31.90;99.90;;;;;;4135918;28;20085;-68
2022/07/23 10:08:23;;;;;;;6.18;1.80;;;31.90;99.90;;;;;;4130535;28;20278;-67
2022/07/23 10:10:40;;;;;;;6.68;1.70;;;31.80;99.90;;;;;;4127770;28;20537;-67
2022/07/23 10:13:17;;;;;;;5.30;1.50;;;31.70;99.90;;;;;;4126137;28;20113;-66
2022/07/23 10:15:25;;;;;;;2.13;1.20;;;31.70;99.90;;;;;;4125701;28;20054;-67
2022/07/23 10:17:30;;;;;;;6.38;1.20;;;31.50;99.90;;;;;;4125479;28;20054;-66
2022/07/23 10:19:37;;;;;;;5.20;1.40;;;31.40;99.90;;;;;;4127684;28;20043;-66
2022/07/23 10:21:49;;;;;;;7.82;1.20;;;31.30;99.90;;;;;;4127566;28;20535;-65
2022/07/23 10:24:18;;;;;;;3.33;1.50;;;31.30;99.90;;;;;;4124534;28;20158;-66
2022/07/23 10:26:41;;;;;;;3.63;1.17;;;31.40;99.90;;;;;;4127551;28;20043;-66
2022/07/23 10:29:09;;;;;;;2.08;0.82;;;31.40;99.90;;;;;;4125753;28;20042;-66
2022/07/23 10:31:41;;;;;;;3.53;1.10;;;31.30;99.90;;;;;;4128274;28;20054;-67
2022/07/23 10:34:37;;;;;;;2.00;0.95;;;31.40;99.90;;;;;;4128421;28;20699;-67
2022/07/23 10:37:12;;;;;;;2.63;0.98;;;31.40;99.90;;;;;;4128256;28;20716;-66
2022/07/23 10:39:27;;;;;;;7.60;1.20;;;31.40;99.90;;;;;;4128338;28;20050;-65
2022/07/23 10:41:33;;;;;;;3.05;1.27;;;31.40;99.90;;;;;;4128525;28;20047;-67
2022/07/23 10:43:38;;;;;;;3.70;0.90;;;31.40;99.90;;;;;;4127991;28;20647;-67
2022/07/23 10:45:44;;;;;;;3.55;1.38;;;31.40;99.90;;;;;;4127842;28;20074;-65
2022/07/23 10:48:23;;;;;;;2.63;0.90;;;31.40;99.90;;;;;;4127260;28;20462;-65
2022/07/23 10:50:34;;;;;;;3.50;0.90;;;31.30;99.90;;;;;;4128028;28;20054;-65
2022/07/23 10:53:21;;;;;;;3.92;1.00;;;31.30;99.90;;;;;;4125601;28;20298;-65
2022/07/23 10:55:44;;;;;;;5.07;0.80;;;31.10;99.90;;;;;;4126223;28;20101;-66
2022/07/23 10:57:50;;;;;;;1.88;0.95;;;31.10;99.90;;;;;;4124706;28;20046;-66
2022/07/23 11:00:16;;;;;;;2.83;1.00;;;31.00;99.90;;;;;;4126672;28;20512;-65
2022/07/23 11:02:24;;;;;;;5.72;1.38;;;31.00;99.90;;;;;;4149953;28;20041;-66
2022/07/23 11:04:51;;;;;;;4.90;1.48;;;31.00;99.90;;;;;;4127267;28;20081;-67
2022/07/23 11:07:12;;;;;;;3.75;1.63;;;30.90;99.90;;;;;;4125719;28;20046;-67
2022/07/23 11:09:41;;;;;;;3.50;1.38;;;30.90;99.90;;;;;;4126931;28;20595;-68
2022/07/23 11:11:46;;;;;;;5.43;1.63;;;30.70;99.90;;;;;;4124612;28;20768;-66